createdAt,value
2018-06-13T00:00:53.292Z,86.30
2018-06-13T00:03:22.165Z,85.60
2018-06-13T00:05:51.039Z,86.90
2018-06-13T00:08:20.560Z,85.90
2018-06-13T00:10:49.270Z,86.10
2018-06-13T00:13:17.985Z,86.30
2018-06-13T00:15:46.929Z,86.00
2018-06-13T00:18:16.551Z,85.90
2018-06-13T00:20:46.184Z,85.70
2018-06-13T00:23:15.120Z,86.30
2018-06-13T00:25:43.991Z,86.20
2018-06-13T00:28:12.924Z,86.60
2018-06-13T00:30:41.707Z,86.70
2018-06-13T00:33:10.617Z,87.40
2018-06-13T00:35:39.500Z,87.70
2018-06-13T00:38:08.321Z,87.30
2018-06-13T00:40:37.082Z,87.80
2018-06-13T00:43:05.924Z,88.10
2018-06-13T00:45:35.327Z,88.10
2018-06-13T00:48:04.463Z,87.80
2018-06-13T00:50:33.441Z,87.40
2018-06-13T00:53:02.117Z,87.90
2018-06-13T00:55:31.020Z,87.60
2018-06-13T00:57:59.710Z,87.40
2018-06-13T01:00:28.395Z,88.70
2018-06-13T01:02:57.217Z,86.30
2018-06-13T01:05:26.051Z,86.80
2018-06-13T01:07:55.336Z,86.70
2018-06-13T01:10:24.987Z,86.80
2018-06-13T01:12:53.722Z,87.20
2018-06-13T01:15:22.426Z,86.80
2018-06-13T01:17:51.123Z,87.50
2018-06-13T01:20:20.343Z,88.10
2018-06-13T01:22:48.977Z,88.10
2018-06-13T01:25:18.854Z,87.90
2018-06-13T01:27:47.724Z,87.90
2018-06-13T01:32:48.010Z,87.90
2018-06-13T01:35:16.828Z,86.90
2018-06-13T01:37:45.548Z,87.20
2018-06-13T01:40:14.409Z,87.40
2018-06-13T01:42:43.318Z,87.70
2018-06-13T01:45:12.071Z,87.70
2018-06-13T01:47:40.850Z,88.00
2018-06-13T01:50:10.514Z,88.10
2018-06-13T01:52:39.177Z,88.20
2018-06-13T01:55:08.729Z,88.80
2018-06-13T01:57:37.564Z,88.20
2018-06-13T02:00:07.135Z,88.30
2018-06-13T02:02:36.621Z,88.50
2018-06-13T02:05:05.444Z,88.20
2018-06-13T02:07:34.617Z,88.90
2018-06-13T02:10:03.504Z,87.40
2018-06-13T02:12:32.270Z,87.30
2018-06-13T02:17:29.287Z,87.20
2018-06-13T02:19:58.022Z,87.00
2018-06-13T02:22:26.733Z,87.20
2018-06-13T02:25:00.242Z,85.40
2018-06-13T02:27:28.893Z,86.70
2018-06-13T02:29:57.574Z,87.30
2018-06-13T02:32:26.326Z,88.90
2018-06-13T02:34:55.122Z,87.30
2018-06-13T02:37:23.955Z,87.70
2018-06-13T02:39:52.761Z,88.10
2018-06-13T02:42:21.404Z,87.90
2018-06-13T02:44:50.124Z,87.40
2018-06-13T02:47:18.899Z,87.00
2018-06-13T02:49:47.804Z,86.30
2018-06-13T02:52:16.482Z,85.90
2018-06-13T02:57:15.363Z,86.10
2018-06-13T03:02:12.580Z,86.10
2018-06-13T03:04:41.239Z,86.20
2018-06-13T03:07:10.011Z,86.50
2018-06-13T03:09:38.780Z,86.90
2018-06-13T03:14:35.679Z,87.30
2018-06-13T03:17:04.344Z,87.80
2018-06-13T03:19:33.534Z,88.30
2018-06-13T03:24:30.472Z,87.90
2018-06-13T03:26:59.578Z,87.90
2018-06-13T03:29:28.276Z,87.80
2018-06-13T03:31:56.980Z,88.40
2018-06-13T03:34:25.638Z,87.30
2018-06-13T03:36:54.547Z,87.00
2018-06-13T03:39:23.203Z,88.10
2018-06-13T03:41:51.993Z,86.70
2018-06-13T03:44:20.680Z,86.60
2018-06-13T03:46:49.324Z,87.00
2018-06-13T03:49:17.961Z,87.50
2018-06-13T03:51:46.736Z,87.80
2018-06-13T03:56:43.907Z,87.90
2018-06-13T03:59:12.586Z,87.90
2018-06-13T04:01:41.256Z,87.80
2018-06-13T04:04:09.905Z,87.80
2018-06-13T04:09:08.005Z,87.40
2018-06-13T04:11:36.775Z,87.00
2018-06-13T04:14:05.431Z,86.80
2018-06-13T04:16:34.148Z,86.80
2018-06-13T04:19:02.862Z,86.80
2018-06-13T04:21:31.631Z,86.70
2018-06-13T04:24:00.824Z,86.70
2018-06-13T04:26:29.664Z,86.90
2018-06-13T04:28:58.377Z,87.20
2018-06-13T04:31:27.138Z,87.30
2018-06-13T04:33:55.955Z,87.30
2018-06-13T04:36:24.710Z,87.20
2018-06-13T04:38:53.325Z,87.20
2018-06-13T04:41:22.023Z,87.60
2018-06-13T04:46:19.195Z,87.30
2018-06-13T04:48:47.950Z,86.70
2018-06-13T04:51:16.568Z,86.70
2018-06-13T04:53:45.470Z,86.20
2018-06-13T04:56:14.277Z,86.10
2018-06-13T04:58:43.032Z,86.00
2018-06-13T05:01:12.035Z,86.10
2018-06-13T05:03:40.868Z,86.40
2018-06-13T05:08:48.280Z,86.20
2018-06-13T05:11:18.271Z,86.50
2018-06-13T05:13:47.203Z,86.80
2018-06-13T05:16:16.052Z,87.30
2018-06-13T05:18:45.143Z,87.60
2018-06-13T05:21:13.843Z,87.70
2018-06-13T05:23:42.608Z,88.30
2018-06-13T05:26:11.482Z,88.80
2018-06-13T05:28:40.359Z,89.40
2018-06-13T05:31:09.413Z,89.30
2018-06-13T05:33:38.116Z,89.40
2018-06-13T05:36:06.863Z,90.00
2018-06-13T05:38:43.411Z,89.00
2018-06-13T05:43:46.848Z,89.80
2018-06-13T05:46:15.637Z,89.40
2018-06-13T05:48:44.299Z,88.20
2018-06-13T05:51:13.059Z,88.60
2018-06-13T05:53:41.815Z,87.00
2018-06-13T05:56:10.663Z,87.30
2018-06-13T05:58:39.470Z,86.80
2018-06-13T06:01:08.182Z,86.70
2018-06-13T06:06:05.845Z,87.10
2018-06-13T06:08:35.585Z,87.50
2018-06-13T06:11:06.678Z,86.90
2018-06-13T06:13:38.886Z,85.20
2018-06-13T06:17:05.155Z,84.90
2018-06-13T06:19:36.963Z,85.30
2018-06-13T06:22:10.673Z,85.40
2018-06-13T06:24:40.706Z,83.70
2018-06-13T06:27:25.340Z,82.80
2018-06-13T06:30:14.429Z,81.70
2018-06-13T06:32:45.697Z,80.70
2018-06-13T06:35:16.358Z,81.00
2018-06-13T06:38:14.348Z,81.20
2018-06-13T06:41:23.018Z,79.80
2018-06-13T06:43:59.467Z,80.70
2018-06-13T06:47:05.532Z,81.60
2018-06-13T06:50:08.529Z,81.10
2018-06-13T06:57:20.152Z,79.90
2018-06-13T07:00:46.854Z,79.10
2018-06-13T07:04:11.347Z,81.20
2018-06-13T07:07:05.233Z,78.90
2018-06-13T07:09:53.418Z,79.90
2018-06-13T07:14:58.184Z,78.50
2018-06-13T07:17:27.218Z,79.40
2018-06-13T07:19:55.907Z,80.10
2018-06-13T07:22:25.590Z,80.50
2018-06-13T07:24:54.596Z,80.80
2018-06-13T07:27:27.784Z,80.20
2018-06-13T07:29:56.743Z,81.30
2018-06-13T07:32:25.402Z,81.80
2018-06-13T07:34:54.756Z,80.60
2018-06-13T07:37:44.779Z,81.00
2018-06-13T07:40:14.470Z,81.50
2018-06-13T07:42:43.418Z,81.70
2018-06-13T07:45:12.132Z,79.90
2018-06-13T07:47:41.270Z,79.20
2018-06-13T07:52:47.731Z,81.40
2018-06-13T07:55:16.752Z,81.00
2018-06-13T07:57:45.651Z,81.20
2018-06-13T08:00:14.488Z,81.50
2018-06-13T08:02:43.464Z,80.60
2018-06-13T08:05:12.500Z,79.90
2018-06-13T08:07:41.279Z,79.50
2018-06-13T08:10:22.679Z,79.80
2018-06-13T08:12:57.717Z,80.50
2018-06-13T08:15:27.697Z,80.20
2018-06-13T08:17:56.717Z,81.20
2018-06-13T08:20:30.103Z,81.20
2018-06-13T08:22:59.427Z,81.40
2018-06-13T08:25:28.208Z,81.50
2018-06-13T08:27:57.635Z,80.30
2018-06-13T08:30:26.500Z,79.50
2018-06-13T08:32:55.459Z,80.00
2018-06-13T08:35:24.485Z,79.50
2018-06-13T08:38:15.212Z,79.90
2018-06-13T08:40:44.064Z,80.30
2018-06-13T08:43:12.792Z,81.20
2018-06-13T08:45:43.594Z,80.30
2018-06-13T08:48:12.475Z,80.80
2018-06-13T08:50:41.324Z,80.90
2018-06-13T08:53:10.388Z,80.50
2018-06-13T08:55:44.240Z,81.10
2018-06-13T08:58:13.420Z,80.10
2018-06-13T09:00:42.283Z,80.50
2018-06-13T09:03:16.501Z,80.60
2018-06-13T09:05:51.124Z,81.00
2018-06-13T09:08:21.406Z,81.30
2018-06-13T09:10:57.053Z,80.80
2018-06-13T09:13:26.441Z,80.80
2018-06-13T09:15:55.910Z,80.20
2018-06-13T09:18:26.241Z,79.70
2018-06-13T09:21:01.991Z,80.10
2018-06-13T09:23:35.294Z,78.90
2018-06-13T09:29:19.939Z,78.80
2018-06-13T09:31:52.995Z,78.20
2018-06-13T09:34:25.304Z,78.80
2018-06-13T09:37:06.760Z,77.20
2018-06-13T09:39:36.425Z,76.10
2018-06-13T09:42:07.009Z,76.30
2018-06-13T09:44:36.119Z,76.30
2018-06-13T09:47:06.902Z,75.40
2018-06-13T09:49:42.988Z,78.10
2018-06-13T09:52:12.229Z,78.20
2018-06-13T09:54:41.224Z,75.00
2018-06-13T09:57:12.577Z,76.90
2018-06-13T09:59:46.804Z,75.20
2018-06-13T10:02:31.823Z,78.10
2018-06-13T10:05:08.610Z,76.60
2018-06-13T10:08:11.838Z,78.60
2018-06-13T10:10:53.050Z,78.00
2018-06-13T10:13:32.984Z,75.90
2018-06-13T10:16:35.256Z,77.10
2018-06-13T10:19:10.376Z,76.10
2018-06-13T10:21:39.664Z,75.40
2018-06-13T10:24:08.740Z,75.50
2018-06-13T10:26:37.621Z,75.60
2018-06-13T10:29:06.627Z,73.00
2018-06-13T10:31:35.430Z,74.90
2018-06-13T10:34:04.340Z,74.90
2018-06-13T10:36:33.699Z,73.80
2018-06-13T10:39:02.770Z,73.80
2018-06-13T10:41:39.647Z,74.40
2018-06-13T10:44:16.363Z,75.90
2018-06-13T10:46:45.509Z,75.10
2018-06-13T10:49:14.465Z,72.60
2018-06-13T10:51:43.453Z,75.60
2018-06-13T10:54:22.939Z,74.80
2018-06-13T10:56:51.778Z,74.70
2018-06-13T10:59:20.590Z,72.80
2018-06-13T11:01:49.515Z,73.20
2018-06-13T11:04:18.502Z,72.30
2018-06-13T11:06:47.514Z,73.70
2018-06-13T11:09:17.506Z,73.30
2018-06-13T11:11:47.286Z,73.40
2018-06-13T11:14:16.774Z,73.70
2018-06-13T11:16:45.732Z,73.50
2018-06-13T11:19:16.824Z,72.10
2018-06-13T11:21:46.166Z,72.30
2018-06-13T11:24:15.384Z,70.90
2018-06-13T11:26:44.265Z,71.30
2018-06-13T11:29:13.075Z,72.10
2018-06-13T11:31:41.954Z,71.90
2018-06-13T11:34:10.930Z,72.00
2018-06-13T11:37:00.655Z,72.50
2018-06-13T11:39:37.569Z,71.50
2018-06-13T11:42:10.186Z,70.70
2018-06-13T11:44:39.081Z,70.90
2018-06-13T11:47:08.238Z,72.40
2018-06-13T11:49:42.260Z,73.00
2018-06-13T11:52:12.115Z,71.70
2018-06-13T11:54:41.135Z,71.00
2018-06-13T11:57:10.778Z,71.70
2018-06-13T11:59:39.934Z,71.80
2018-06-13T12:02:09.450Z,71.90
2018-06-13T12:04:38.412Z,70.30
2018-06-13T12:07:07.407Z,73.30
2018-06-13T12:09:37.117Z,72.60
2018-06-13T12:12:06.162Z,70.50
2018-06-13T12:14:35.117Z,73.60
2018-06-13T12:17:04.314Z,71.00
2018-06-13T12:19:33.459Z,73.10
2018-06-13T12:22:02.437Z,72.60
2018-06-13T12:24:31.574Z,73.70
2018-06-13T12:27:00.492Z,73.00
2018-06-13T12:29:30.097Z,73.20
2018-06-13T12:32:00.137Z,71.90
2018-06-13T12:34:29.137Z,72.50
2018-06-13T12:36:57.916Z,75.00
2018-06-13T12:39:28.776Z,75.70
2018-06-13T12:41:57.846Z,75.70
2018-06-13T12:44:28.156Z,75.60
2018-06-13T12:46:57.534Z,75.10
2018-06-13T12:49:26.712Z,76.50
2018-06-13T12:51:55.604Z,77.30
2018-06-13T12:54:28.204Z,76.70
2018-06-13T12:56:57.367Z,76.90
2018-06-13T12:59:26.063Z,77.50
2018-06-13T13:01:54.929Z,78.90
2018-06-13T13:04:23.792Z,76.30
2018-06-13T13:06:52.558Z,79.30
2018-06-13T13:09:21.538Z,79.30
2018-06-13T13:11:50.484Z,80.30
2018-06-13T13:14:19.515Z,81.00
2018-06-13T13:16:48.418Z,78.20
2018-06-13T13:19:17.164Z,80.50
2018-06-13T13:21:46.054Z,81.60
2018-06-13T13:24:14.836Z,81.00
2018-06-13T13:26:43.836Z,82.40
2018-06-13T13:29:12.732Z,84.50
2018-06-13T13:31:41.565Z,85.30
2018-06-13T13:34:10.863Z,84.10
2018-06-13T13:36:46.033Z,85.50
2018-06-13T13:39:15.046Z,85.50
2018-06-13T13:41:44.110Z,85.60
2018-06-13T13:44:13.926Z,87.00
2018-06-13T13:46:45.624Z,87.60
2018-06-13T13:49:15.264Z,90.30
2018-06-13T13:51:44.004Z,89.00
2018-06-13T13:54:12.891Z,87.10
2018-06-13T13:56:41.971Z,88.30
2018-06-13T13:59:11.018Z,89.20
2018-06-13T14:01:40.278Z,88.30
2018-06-13T14:04:09.408Z,88.90
2018-06-13T14:06:38.193Z,88.20
2018-06-13T14:09:08.401Z,88.20
2018-06-13T14:11:37.286Z,88.10
2018-06-13T14:14:06.031Z,88.00
2018-06-13T14:16:34.782Z,87.90
2018-06-13T14:19:03.833Z,88.00
2018-06-13T14:21:32.476Z,88.00
2018-06-13T14:24:01.247Z,88.10
2018-06-13T14:26:33.636Z,85.90
2018-06-13T14:29:12.713Z,87.80
2018-06-13T14:31:43.065Z,89.40
2018-06-13T14:34:17.128Z,88.20
2018-06-13T14:36:49.114Z,87.30
2018-06-13T14:46:17.655Z,87.50
2018-06-13T14:48:51.049Z,87.70
2018-06-13T14:51:27.681Z,87.70
2018-06-13T14:54:00.993Z,87.50
2018-06-13T14:56:36.313Z,87.70
2018-06-13T14:59:21.189Z,87.30
2018-06-13T15:01:50.812Z,87.20
2018-06-13T15:04:36.259Z,87.50
2018-06-13T15:07:06.369Z,87.10
2018-06-13T15:09:35.317Z,87.50
2018-06-13T15:12:04.242Z,87.10
2018-06-13T15:14:33.512Z,88.10
2018-06-13T15:17:02.480Z,88.10
2018-06-13T15:19:31.445Z,87.00
2018-06-13T15:22:00.270Z,87.20
2018-06-13T15:24:29.056Z,87.30
2018-06-13T15:26:57.857Z,86.80
2018-06-13T15:29:26.727Z,87.30
2018-06-13T15:31:55.454Z,86.30
2018-06-13T15:34:24.249Z,87.40
2018-06-13T15:36:53.629Z,87.10
2018-06-13T15:39:22.517Z,88.00
2018-06-13T15:41:51.375Z,87.30
2018-06-13T15:44:20.166Z,87.00
2018-06-13T15:46:49.043Z,86.80
2018-06-13T15:49:17.917Z,87.90
2018-06-13T15:51:46.770Z,87.60
2018-06-13T15:54:15.892Z,88.40
2018-06-13T15:56:44.775Z,87.60
2018-06-13T15:59:13.671Z,87.60
2018-06-13T16:01:42.482Z,87.30
2018-06-13T16:04:11.371Z,87.00
2018-06-13T16:06:40.339Z,86.40
2018-06-13T16:09:10.458Z,86.10
2018-06-13T16:11:44.519Z,86.40
2018-06-13T16:14:13.738Z,86.20
2018-06-13T16:16:49.817Z,85.60
2018-06-13T16:19:25.816Z,86.50
2018-06-13T16:21:54.801Z,86.70
2018-06-13T16:24:23.470Z,87.40
2018-06-13T16:27:07.223Z,86.10
2018-06-13T16:29:36.093Z,85.50
2018-06-13T16:32:05.036Z,86.00
2018-06-13T16:34:34.060Z,85.90
2018-06-13T16:39:31.615Z,85.20
2018-06-13T16:42:00.324Z,84.70
2018-06-13T16:46:57.588Z,85.80
2018-06-13T16:49:26.298Z,86.60
2018-06-13T16:51:57.301Z,84.50
2018-06-13T16:54:37.279Z,80.30
2018-06-13T16:57:06.130Z,81.60
2018-06-13T16:59:34.872Z,79.70
2018-06-13T17:02:03.763Z,81.00
2018-06-13T17:04:39.791Z,80.10
2018-06-13T17:07:08.491Z,82.70
2018-06-13T17:09:37.130Z,82.90
2018-06-13T17:12:06.616Z,83.60
2018-06-13T17:14:35.406Z,82.80
2018-06-13T17:17:12.151Z,82.80
2018-06-13T17:19:47.764Z,84.10
2018-06-13T17:22:16.601Z,83.00
2018-06-13T17:24:45.447Z,82.90
2018-06-13T17:27:14.198Z,83.50
2018-06-13T17:29:43.683Z,83.50
2018-06-13T17:32:25.046Z,81.90
2018-06-13T17:35:09.468Z,83.80
2018-06-13T17:37:51.864Z,81.80
2018-06-13T17:40:22.983Z,82.60
2018-06-13T17:42:54.194Z,81.80
2018-06-13T17:45:27.496Z,82.10
2018-06-13T17:47:56.159Z,82.60
2018-06-13T17:50:28.264Z,81.20
2018-06-13T17:52:57.056Z,81.20
2018-06-13T17:57:54.185Z,81.60
2018-06-13T18:00:23.226Z,80.20
2018-06-13T18:02:58.175Z,82.30
2018-06-13T18:05:46.013Z,81.00
2018-06-13T18:08:14.852Z,79.50
2018-06-13T18:10:44.039Z,79.80
2018-06-13T18:13:12.778Z,81.70
2018-06-13T18:15:41.858Z,78.50
2018-06-13T18:20:39.130Z,78.40
2018-06-13T18:23:08.049Z,79.00
2018-06-13T18:25:36.858Z,78.60
2018-06-13T18:28:05.875Z,75.90
2018-06-13T18:30:34.723Z,75.10
2018-06-13T18:33:05.560Z,75.90
2018-06-13T18:35:34.416Z,75.60
2018-06-13T18:38:03.230Z,76.30
2018-06-13T18:40:31.923Z,76.20
2018-06-13T18:43:01.345Z,75.20
2018-06-13T18:45:30.526Z,75.10
2018-06-13T18:47:59.188Z,75.30
2018-06-13T18:50:28.012Z,75.40
2018-06-13T18:52:56.796Z,75.80
2018-06-13T18:57:54.082Z,74.70
2018-06-13T19:02:51.271Z,75.70
2018-06-13T19:05:20.289Z,77.30
2018-06-13T19:07:49.014Z,74.80
2018-06-13T19:10:17.741Z,75.00
2018-06-13T19:12:46.499Z,74.80
2018-06-13T19:15:15.274Z,76.70
2018-06-13T19:17:43.863Z,74.40
2018-06-13T19:20:12.618Z,74.70
2018-06-13T19:22:41.926Z,73.60
2018-06-13T19:25:10.594Z,74.80
2018-06-13T19:30:07.602Z,78.50
2018-06-13T19:32:36.303Z,74.30
2018-06-13T19:35:05.001Z,77.60
2018-06-13T19:37:33.754Z,78.40
2018-06-13T19:40:02.482Z,78.70
2018-06-13T19:42:31.304Z,79.90
2018-06-13T19:47:33.657Z,82.90
2018-06-13T19:50:02.344Z,80.50
2018-06-13T19:52:36.332Z,80.70
2018-06-13T19:55:10.148Z,79.10
2018-06-13T19:57:38.856Z,79.00
2018-06-13T20:00:07.591Z,79.50
2018-06-13T20:02:41.666Z,81.60
2018-06-13T20:05:15.612Z,83.30
2018-06-13T20:07:44.379Z,82.90
2018-06-13T20:10:13.077Z,84.60
2018-06-13T20:12:46.995Z,85.20
2018-06-13T20:17:54.595Z,85.30
2018-06-13T20:20:23.240Z,85.90
2018-06-13T20:22:52.133Z,85.30
2018-06-13T20:25:26.126Z,85.80
2018-06-13T20:27:59.970Z,85.90
2018-06-13T20:30:34.396Z,86.50
2018-06-13T20:33:03.081Z,87.00
2018-06-13T20:35:31.785Z,85.70
2018-06-13T20:38:00.598Z,86.30
2018-06-13T20:40:29.657Z,87.00
2018-06-13T20:42:58.429Z,85.60
2018-06-13T20:45:27.156Z,83.40
2018-06-13T20:47:55.871Z,85.40
2018-06-13T20:52:53.293Z,86.00
2018-06-13T20:55:21.970Z,85.60
2018-06-13T20:57:50.851Z,86.40
2018-06-13T21:00:19.546Z,86.20
2018-06-13T21:02:48.323Z,86.70
2018-06-13T21:05:17.127Z,85.90
2018-06-13T21:07:45.892Z,84.70
2018-06-13T21:10:14.500Z,84.00
2018-06-13T21:12:43.224Z,84.60
2018-06-13T21:15:12.717Z,78.00
2018-06-13T21:17:41.386Z,82.70
2018-06-13T21:20:17.657Z,83.10
2018-06-13T21:22:46.344Z,84.00
2018-06-13T21:25:15.901Z,83.10
2018-06-13T21:27:44.714Z,83.50
2018-06-13T21:30:13.391Z,84.10
2018-06-13T21:32:42.178Z,85.50
2018-06-13T21:35:10.929Z,82.70
2018-06-13T21:37:40.678Z,82.30
2018-06-13T21:40:09.380Z,82.70
2018-06-13T21:45:06.570Z,82.80
2018-06-13T21:47:35.209Z,80.10
2018-06-13T21:50:04.283Z,80.00
2018-06-13T21:52:32.973Z,80.20
2018-06-13T21:55:01.715Z,77.10
2018-06-13T21:57:30.377Z,78.30
2018-06-13T21:59:59.099Z,83.10
2018-06-13T22:02:27.863Z,83.60
2018-06-13T22:04:56.810Z,83.30
2018-06-13T22:07:25.574Z,84.10
2018-06-13T22:09:54.950Z,84.70
2018-06-13T22:12:23.620Z,85.20
2018-06-13T22:14:52.408Z,84.70
2018-06-13T22:19:49.595Z,84.10
2018-06-13T22:24:46.950Z,83.90
2018-06-13T22:27:15.668Z,84.60
2018-06-13T22:29:44.308Z,82.20
2018-06-13T22:32:13.136Z,82.40
2018-06-13T22:34:41.914Z,82.50
2018-06-13T22:37:10.860Z,82.40
2018-06-13T22:39:39.537Z,82.80
2018-06-13T22:42:08.291Z,81.90
2018-06-13T22:44:37.166Z,82.70
2018-06-13T22:47:05.974Z,82.50
2018-06-13T22:49:34.659Z,82.90
2018-06-13T22:52:03.360Z,83.60
2018-06-13T22:54:32.119Z,82.90
2018-06-13T22:57:00.876Z,83.50
2018-06-13T22:59:29.682Z,83.20
2018-06-13T23:01:58.395Z,84.40
2018-06-13T23:06:55.533Z,83.90
2018-06-13T23:09:24.518Z,84.30
2018-06-13T23:11:53.252Z,84.80
2018-06-13T23:14:21.926Z,84.10
2018-06-13T23:19:19.219Z,84.20
2018-06-13T23:21:52.961Z,84.30
2018-06-13T23:24:27.040Z,84.50
2018-06-13T23:26:56.066Z,84.10
2018-06-13T23:29:25.486Z,84.00
2018-06-13T23:31:54.263Z,83.70
2018-06-13T23:34:23.095Z,83.90
2018-06-13T23:36:51.848Z,84.30
2018-06-13T23:39:21.271Z,84.60
2018-06-13T23:41:49.828Z,84.60
2018-06-13T23:44:18.583Z,85.20
2018-06-13T23:46:47.370Z,85.30
2018-06-13T23:49:16.176Z,85.90
2018-06-13T23:51:44.865Z,85.40
2018-06-13T23:54:13.445Z,84.80
2018-06-13T23:56:42.452Z,83.70
2018-06-13T23:59:11.074Z,83.20
